createdAt,value
2018-07-26T00:00:56.483Z,6.07
2018-07-26T00:03:24.711Z,5.63
2018-07-26T00:05:52.972Z,6.03
2018-07-26T00:08:21.226Z,6.13
2018-07-26T00:10:49.464Z,5.53
2018-07-26T00:13:17.722Z,6.00
2018-07-26T00:15:45.983Z,6.17
2018-07-26T00:18:14.192Z,5.77
2018-07-26T00:20:42.477Z,5.63
2018-07-26T00:23:10.766Z,6.10
2018-07-26T00:25:39.006Z,6.97
2018-07-26T00:28:07.264Z,6.50
2018-07-26T00:30:35.513Z,6.10
2018-07-26T00:33:03.763Z,6.20
2018-07-26T00:35:32.047Z,5.97
2018-07-26T00:38:00.296Z,6.33
2018-07-26T00:40:28.540Z,6.20
2018-07-26T00:42:56.788Z,6.77
2018-07-26T00:45:25.046Z,6.53
2018-07-26T00:47:53.336Z,6.23
2018-07-26T00:50:21.588Z,6.20
2018-07-26T00:52:49.903Z,6.30
2018-07-26T00:55:18.136Z,5.70
2018-07-26T00:57:46.384Z,5.70
2018-07-26T01:00:14.633Z,6.03
2018-07-26T01:02:42.880Z,6.30
2018-07-26T01:05:11.099Z,6.33
2018-07-26T01:07:39.335Z,6.20
2018-07-26T01:10:08.135Z,6.53
2018-07-26T01:12:36.399Z,6.13
2018-07-26T01:15:05.239Z,6.40
2018-07-26T01:17:33.484Z,6.30
2018-07-26T01:20:01.737Z,6.27
2018-07-26T01:22:29.994Z,6.10
2018-07-26T01:25:00.098Z,5.83
2018-07-26T01:27:28.551Z,5.80
2018-07-26T01:29:56.560Z,5.70
2018-07-26T01:32:24.802Z,5.57
2018-07-26T01:34:53.056Z,6.30
2018-07-26T01:37:21.062Z,6.07
2018-07-26T01:39:49.292Z,6.07
2018-07-26T01:42:17.566Z,6.27
2018-07-26T01:44:45.788Z,6.70
2018-07-26T01:47:14.042Z,5.87
2018-07-26T01:49:42.287Z,6.03
2018-07-26T01:52:10.529Z,5.67
2018-07-26T01:54:38.736Z,6.00
2018-07-26T01:57:06.968Z,6.10
2018-07-26T01:59:35.208Z,6.30
2018-07-26T02:02:03.476Z,6.87
2018-07-26T02:04:31.716Z,6.33
2018-07-26T02:07:00.012Z,6.40
2018-07-26T02:09:28.234Z,6.17
2018-07-26T02:11:56.553Z,5.70
2018-07-26T02:14:30.076Z,5.50
2018-07-26T02:16:58.322Z,6.00
2018-07-26T02:19:26.571Z,6.13
2018-07-26T02:21:54.831Z,5.73
2018-07-26T02:24:23.059Z,6.63
2018-07-26T02:26:51.317Z,6.20
2018-07-26T02:29:19.569Z,5.90
2018-07-26T02:31:47.820Z,5.73
2018-07-26T02:34:16.064Z,6.30
2018-07-26T02:36:44.329Z,6.10
2018-07-26T02:39:12.575Z,6.07
2018-07-26T02:41:40.973Z,5.70
2018-07-26T02:44:09.465Z,6.40
2018-07-26T02:46:37.713Z,5.90
2018-07-26T02:49:05.967Z,5.70
2018-07-26T02:51:34.344Z,6.43
2018-07-26T02:54:02.588Z,6.33
2018-07-26T02:56:30.816Z,6.70
2018-07-26T02:58:59.078Z,5.70
2018-07-26T03:01:27.313Z,6.13
2018-07-26T03:03:55.556Z,6.00
2018-07-26T03:06:23.779Z,5.83
2018-07-26T03:08:52.032Z,5.80
2018-07-26T03:11:20.031Z,6.60
2018-07-26T03:13:48.266Z,6.07
2018-07-26T03:16:17.111Z,6.27
2018-07-26T03:18:45.355Z,6.30
2018-07-26T03:21:13.630Z,6.07
2018-07-26T03:23:41.866Z,6.27
2018-07-26T03:26:10.102Z,6.30
2018-07-26T03:28:38.366Z,7.37
2018-07-26T03:31:06.970Z,6.60
2018-07-26T03:33:36.226Z,7.10
2018-07-26T03:36:04.477Z,6.53
2018-07-26T03:38:32.475Z,6.80
2018-07-26T03:41:01.376Z,7.03
2018-07-26T03:43:29.634Z,6.53
2018-07-26T03:45:57.874Z,5.80
2018-07-26T03:48:26.118Z,5.97
2018-07-26T03:50:54.349Z,6.27
2018-07-26T03:53:22.616Z,6.77
2018-07-26T03:55:50.916Z,6.57
2018-07-26T03:58:19.161Z,6.50
2018-07-26T04:00:47.404Z,6.47
2018-07-26T04:03:22.865Z,6.20
2018-07-26T04:05:51.079Z,6.63
2018-07-26T04:08:19.348Z,7.70
2018-07-26T04:10:47.596Z,9.67
2018-07-26T04:13:15.632Z,9.90
2018-07-26T04:15:43.856Z,12.00
2018-07-26T04:18:12.106Z,14.67
2018-07-26T04:20:40.371Z,12.43
2018-07-26T04:23:08.648Z,11.10
2018-07-26T04:25:36.913Z,11.40
2018-07-26T04:28:05.304Z,13.23
2018-07-26T04:30:33.770Z,12.63
2018-07-26T04:33:02.025Z,14.33
2018-07-26T04:35:30.260Z,17.27
2018-07-26T04:37:58.527Z,15.07
2018-07-26T04:40:26.551Z,16.57
2018-07-26T04:42:54.844Z,16.77
2018-07-26T04:45:23.082Z,15.73
2018-07-26T04:47:51.319Z,14.40
2018-07-26T04:50:19.604Z,13.57
2018-07-26T04:52:47.865Z,12.20
2018-07-26T04:55:16.100Z,11.53
2018-07-26T04:57:44.339Z,11.60
2018-07-26T05:00:12.624Z,10.97
2018-07-26T05:02:40.871Z,10.43
2018-07-26T05:05:09.131Z,8.43
2018-07-26T05:07:37.371Z,9.67
2018-07-26T05:10:05.681Z,8.27
2018-07-26T05:12:33.971Z,8.30
2018-07-26T05:15:02.934Z,7.87
2018-07-26T05:17:31.180Z,8.07
2018-07-26T05:20:02.043Z,7.00
2018-07-26T05:22:30.377Z,9.00
2018-07-26T05:24:58.602Z,7.80
2018-07-26T05:27:26.831Z,7.53
2018-07-26T05:29:55.065Z,6.90
2018-07-26T05:32:23.069Z,7.23
2018-07-26T05:34:51.511Z,6.70
2018-07-26T05:37:19.506Z,6.40
2018-07-26T05:39:47.767Z,7.00
2018-07-26T05:42:15.972Z,6.40
2018-07-26T05:44:44.235Z,6.73
2018-07-26T05:47:12.611Z,6.50
2018-07-26T05:49:40.859Z,9.13
2018-07-26T05:52:08.873Z,7.10
2018-07-26T05:54:37.188Z,6.67
2018-07-26T05:57:05.443Z,6.33
2018-07-26T05:59:33.699Z,6.93
2018-07-26T06:02:01.985Z,5.93
2018-07-26T06:04:30.613Z,6.27
2018-07-26T06:06:58.941Z,6.10
2018-07-26T06:09:27.207Z,7.10
2018-07-26T06:11:55.428Z,6.37
2018-07-26T06:14:23.674Z,6.13
2018-07-26T06:16:51.960Z,6.83
2018-07-26T06:19:20.244Z,6.93
2018-07-26T06:21:48.560Z,6.23
2018-07-26T06:24:16.850Z,6.53
2018-07-26T06:26:45.047Z,5.97
2018-07-26T06:29:13.286Z,6.33
2018-07-26T06:31:41.543Z,6.70
2018-07-26T06:34:09.804Z,6.57
2018-07-26T06:36:37.827Z,6.20
2018-07-26T06:39:08.979Z,6.50
2018-07-26T06:41:37.311Z,6.13
2018-07-26T06:44:05.590Z,6.27
2018-07-26T06:46:33.818Z,6.67
2018-07-26T06:49:02.089Z,6.60
2018-07-26T06:51:30.322Z,6.30
2018-07-26T06:53:58.587Z,5.87
2018-07-26T06:56:26.893Z,6.00
2018-07-26T06:58:55.299Z,6.13
2018-07-26T07:01:23.551Z,5.83
2018-07-26T07:03:51.782Z,5.57
2018-07-26T07:06:20.018Z,6.00
2018-07-26T07:08:48.285Z,6.87
2018-07-26T07:11:16.596Z,6.17
2018-07-26T07:13:45.175Z,6.27
2018-07-26T07:16:13.607Z,5.77
2018-07-26T07:18:41.832Z,5.90
2018-07-26T07:21:09.853Z,5.93
2018-07-26T07:23:38.096Z,5.37
2018-07-26T07:26:06.427Z,5.67
2018-07-26T07:28:34.647Z,5.22
2018-07-26T07:31:02.904Z,5.72
2018-07-26T07:33:31.119Z,5.70
2018-07-26T07:35:59.375Z,5.40
2018-07-26T07:38:27.597Z,5.22
2018-07-26T07:40:56.278Z,5.22
2018-07-26T07:43:24.755Z,4.45
2018-07-26T07:45:53.016Z,5.10
2018-07-26T07:48:21.292Z,4.97
2018-07-26T07:50:49.515Z,5.97
2018-07-26T07:53:17.542Z,5.10
2018-07-26T07:55:45.784Z,5.08
2018-07-26T07:58:14.020Z,5.17
2018-07-26T08:00:42.277Z,5.00
2018-07-26T08:03:10.561Z,5.20
2018-07-26T08:05:38.811Z,5.25
2018-07-26T08:08:07.030Z,4.92
2018-07-26T08:10:35.296Z,5.15
2018-07-26T08:13:03.556Z,5.72
2018-07-26T08:15:31.796Z,5.50
2018-07-26T08:18:00.011Z,4.62
2018-07-26T08:20:28.332Z,5.30
2018-07-26T08:22:56.553Z,5.40
2018-07-26T08:25:24.774Z,4.55
2018-07-26T08:27:53.035Z,4.92
2018-07-26T08:30:21.239Z,5.10
2018-07-26T08:32:49.466Z,5.28
2018-07-26T08:35:17.671Z,4.67
2018-07-26T08:37:45.928Z,4.78
2018-07-26T08:40:14.172Z,5.17
2018-07-26T08:42:42.437Z,5.25
2018-07-26T08:45:10.675Z,5.40
2018-07-26T08:47:38.914Z,4.97
2018-07-26T08:50:07.205Z,4.97
2018-07-26T08:52:35.483Z,4.72
2018-07-26T08:55:03.706Z,5.05
2018-07-26T08:57:31.957Z,4.60
2018-07-26T09:00:00.217Z,4.87
2018-07-26T09:02:28.520Z,5.35
2018-07-26T09:04:56.752Z,4.97
2018-07-26T09:07:24.976Z,5.20
2018-07-26T09:09:53.226Z,4.60
2018-07-26T09:12:21.464Z,4.87
2018-07-26T09:14:49.689Z,4.83
2018-07-26T09:17:18.006Z,4.80
2018-07-26T09:19:46.208Z,4.62
2018-07-26T09:22:14.450Z,4.95
2018-07-26T09:24:43.112Z,5.10
2018-07-26T09:27:12.847Z,5.37
2018-07-26T09:29:41.313Z,5.42
2018-07-26T09:32:09.598Z,5.17
2018-07-26T09:34:37.825Z,4.75
2018-07-26T09:37:06.075Z,4.75
2018-07-26T09:39:34.320Z,4.90
2018-07-26T09:42:02.579Z,5.08
2018-07-26T09:44:30.832Z,5.10
2018-07-26T09:46:59.052Z,4.80
2018-07-26T09:49:27.350Z,5.30
2018-07-26T09:51:55.600Z,4.83
2018-07-26T09:54:23.868Z,5.15
2018-07-26T09:56:52.131Z,4.55
2018-07-26T09:59:20.477Z,4.87
2018-07-26T10:01:48.735Z,4.60
2018-07-26T10:04:16.948Z,4.40
2018-07-26T10:06:45.284Z,4.70
2018-07-26T10:09:13.524Z,4.60
2018-07-26T10:11:41.781Z,5.03
2018-07-26T10:14:10.038Z,4.50
2018-07-26T10:16:38.260Z,4.33
2018-07-26T10:19:06.308Z,4.72
2018-07-26T10:21:34.535Z,4.58
2018-07-26T10:24:02.771Z,4.60
2018-07-26T10:26:31.089Z,4.60
2018-07-26T10:28:59.135Z,4.70
2018-07-26T10:31:27.364Z,5.20
2018-07-26T10:33:55.604Z,4.65
2018-07-26T10:36:24.058Z,4.95
2018-07-26T10:38:52.348Z,5.00
2018-07-26T10:41:20.574Z,5.08
2018-07-26T10:43:48.881Z,4.95
2018-07-26T10:46:17.123Z,4.20
2018-07-26T10:48:45.355Z,6.45
2018-07-26T10:51:13.572Z,5.00
2018-07-26T10:53:41.819Z,4.45
2018-07-26T10:56:10.083Z,4.83
2018-07-26T10:58:38.334Z,4.33
2018-07-26T11:01:07.468Z,5.47
2018-07-26T11:03:35.755Z,4.78
2018-07-26T11:06:03.996Z,5.10
2018-07-26T11:08:32.243Z,5.10
2018-07-26T11:11:00.472Z,4.87
2018-07-26T11:13:28.707Z,4.75
2018-07-26T11:15:56.908Z,4.50
2018-07-26T11:18:25.151Z,4.95
2018-07-26T11:20:53.398Z,5.17
2018-07-26T11:23:21.647Z,5.20
2018-07-26T11:25:49.878Z,4.60
2018-07-26T11:28:18.120Z,4.78
2018-07-26T11:30:46.332Z,4.62
2018-07-26T11:33:14.635Z,4.67
2018-07-26T11:35:42.878Z,4.20
2018-07-26T11:38:11.117Z,5.15
2018-07-26T11:40:39.328Z,4.50
2018-07-26T11:43:07.578Z,4.55
2018-07-26T11:45:35.802Z,4.47
2018-07-26T11:48:04.075Z,4.90
2018-07-26T11:50:32.303Z,4.60
2018-07-26T11:53:00.612Z,4.40
2018-07-26T11:55:28.841Z,4.60
2018-07-26T11:57:57.082Z,4.58
2018-07-26T12:00:25.335Z,4.60
2018-07-26T12:02:53.599Z,4.97
2018-07-26T12:05:21.855Z,4.70
2018-07-26T12:07:50.107Z,4.53
2018-07-26T12:10:18.340Z,4.65
2018-07-26T12:12:46.540Z,4.58
2018-07-26T12:15:15.574Z,4.45
2018-07-26T12:17:43.908Z,5.37
2018-07-26T12:20:11.900Z,4.45
2018-07-26T12:22:40.130Z,4.25
2018-07-26T12:25:08.348Z,4.30
2018-07-26T12:27:36.624Z,4.37
2018-07-26T12:30:06.324Z,4.15
2018-07-26T12:32:34.612Z,5.12
2018-07-26T12:35:02.841Z,4.55
2018-07-26T12:37:31.064Z,4.05
2018-07-26T12:39:59.300Z,3.90
2018-07-26T12:42:27.515Z,3.87
2018-07-26T12:44:56.416Z,4.20
2018-07-26T12:47:25.115Z,4.33
2018-07-26T12:49:53.455Z,4.25
2018-07-26T12:52:21.833Z,3.80
2018-07-26T12:54:50.641Z,3.65
2018-07-26T12:57:19.087Z,4.65
2018-07-26T12:59:47.354Z,3.95
2018-07-26T13:02:15.570Z,4.25
2018-07-26T13:04:43.595Z,4.30
2018-07-26T13:07:11.898Z,3.90
2018-07-26T13:09:40.181Z,4.00
2018-07-26T13:12:08.446Z,3.95
2018-07-26T13:14:36.691Z,3.83
2018-07-26T13:17:04.985Z,3.80
2018-07-26T13:19:33.303Z,3.70
2018-07-26T13:22:01.592Z,3.80
2018-07-26T13:24:29.931Z,4.12
2018-07-26T13:26:58.164Z,3.90
2018-07-26T13:29:26.653Z,4.05
2018-07-26T13:31:54.863Z,4.17
2018-07-26T13:34:23.107Z,3.90
2018-07-26T13:36:51.347Z,4.37
2018-07-26T13:39:19.620Z,4.00
2018-07-26T13:41:47.892Z,4.20
2018-07-26T13:44:16.135Z,8.43
2018-07-26T13:46:44.340Z,5.42
2018-07-26T13:49:12.638Z,6.42
2018-07-26T13:51:40.866Z,4.22
2018-07-26T13:54:09.130Z,4.00
2018-07-26T13:56:37.375Z,4.30
2018-07-26T13:59:05.615Z,4.40
2018-07-26T14:01:33.900Z,4.17
2018-07-26T14:04:02.140Z,4.20
2018-07-26T14:06:30.443Z,3.83
2018-07-26T14:08:58.656Z,4.58
2018-07-26T14:11:26.885Z,4.47
2018-07-26T14:13:55.101Z,3.90
2018-07-26T14:16:23.358Z,3.67
2018-07-26T14:18:51.599Z,4.00
2018-07-26T14:21:19.856Z,3.92
2018-07-26T14:23:52.354Z,4.10
2018-07-26T14:26:20.622Z,3.90
2018-07-26T14:28:48.846Z,4.10
2018-07-26T14:31:17.098Z,10.80
2018-07-26T14:33:45.341Z,3.95
2018-07-26T14:36:13.624Z,4.40
2018-07-26T14:38:41.847Z,4.20
2018-07-26T14:41:10.491Z,3.80
2018-07-26T14:43:38.750Z,4.15
2018-07-26T14:46:06.900Z,4.30
2018-07-26T14:48:35.127Z,4.33
2018-07-26T14:51:03.381Z,4.28
2018-07-26T14:53:31.613Z,4.03
2018-07-26T14:56:00.555Z,4.20
2018-07-26T14:58:28.763Z,4.00
2018-07-26T15:00:57.052Z,4.30
2018-07-26T15:03:25.272Z,4.75
2018-07-26T15:05:53.918Z,4.00
2018-07-26T15:08:22.546Z,4.17
2018-07-26T15:10:50.994Z,4.53
2018-07-26T15:13:19.212Z,4.30
2018-07-26T15:15:47.460Z,5.03
2018-07-26T15:18:15.711Z,5.00
2018-07-26T15:20:43.994Z,4.65
2018-07-26T15:23:12.330Z,5.97
2018-07-26T15:25:40.604Z,5.10
2018-07-26T15:28:08.871Z,5.05
2018-07-26T15:30:37.542Z,4.70
2018-07-26T15:33:05.824Z,5.17
2018-07-26T15:35:34.052Z,4.97
2018-07-26T15:38:02.380Z,4.78
2018-07-26T15:40:30.609Z,4.90
2018-07-26T15:42:58.838Z,4.00
2018-07-26T15:45:27.072Z,4.00
2018-07-26T15:47:55.339Z,4.50
2018-07-26T15:50:23.345Z,3.58
2018-07-26T15:52:51.575Z,4.03
2018-07-26T15:55:19.831Z,3.87
2018-07-26T15:57:48.078Z,3.92
2018-07-26T16:00:16.284Z,3.75
2018-07-26T16:02:44.532Z,3.85
2018-07-26T16:05:12.773Z,3.90
2018-07-26T16:07:41.081Z,3.92
2018-07-26T16:10:09.759Z,3.85
2018-07-26T16:12:38.296Z,3.85
2018-07-26T16:15:08.226Z,4.15
2018-07-26T16:17:36.557Z,4.08
2018-07-26T16:20:05.180Z,3.65
2018-07-26T16:22:33.396Z,3.75
2018-07-26T16:25:01.650Z,3.52
2018-07-26T16:27:29.941Z,3.58
2018-07-26T16:29:58.199Z,3.42
2018-07-26T16:32:26.447Z,3.65
2018-07-26T16:34:54.468Z,3.42
2018-07-26T16:37:22.734Z,3.20
2018-07-26T16:39:51.041Z,3.90
2018-07-26T16:42:19.293Z,3.67
2018-07-26T16:44:47.546Z,3.47
2018-07-26T16:47:15.800Z,3.50
2018-07-26T16:49:44.027Z,3.72
2018-07-26T16:52:12.300Z,3.80
2018-07-26T16:54:40.540Z,3.40
2018-07-26T16:57:08.804Z,3.87
2018-07-26T16:59:37.036Z,3.83
2018-07-26T17:02:05.327Z,3.75
2018-07-26T17:04:33.968Z,3.40
2018-07-26T17:07:02.231Z,3.50
2018-07-26T17:09:30.448Z,3.45
2018-07-26T17:11:58.715Z,3.52
2018-07-26T17:14:26.947Z,3.47
2018-07-26T17:16:55.189Z,3.60
2018-07-26T17:19:23.437Z,3.85
2018-07-26T17:21:51.694Z,3.72
2018-07-26T17:24:19.956Z,3.45
2018-07-26T17:26:48.282Z,3.35
2018-07-26T17:29:16.525Z,3.40
2018-07-26T17:31:44.974Z,3.20
2018-07-26T17:34:13.214Z,3.75
2018-07-26T17:36:41.501Z,3.55
2018-07-26T17:39:10.822Z,3.77
2018-07-26T17:41:39.270Z,3.70
2018-07-26T17:44:07.509Z,3.50
2018-07-26T17:46:35.798Z,3.90
2018-07-26T17:49:04.081Z,3.72
2018-07-26T17:51:32.458Z,3.80
2018-07-26T17:54:00.780Z,3.80
2018-07-26T17:56:29.072Z,3.90
2018-07-26T17:58:57.327Z,3.98
2018-07-26T18:01:25.614Z,4.58
2018-07-26T18:03:54.809Z,4.33
2018-07-26T18:06:23.062Z,4.50
2018-07-26T18:08:51.394Z,4.25
2018-07-26T18:11:19.656Z,4.42
2018-07-26T18:13:47.945Z,4.95
2018-07-26T18:16:16.226Z,4.90
2018-07-26T18:18:44.491Z,4.50
2018-07-26T18:21:12.731Z,5.10
2018-07-26T18:23:40.986Z,4.67
2018-07-26T18:26:09.088Z,4.65
2018-07-26T18:28:37.381Z,4.70
2018-07-26T18:31:05.692Z,4.95
2018-07-26T18:33:33.943Z,5.08
2018-07-26T18:36:02.193Z,5.22
2018-07-26T18:38:30.532Z,4.60
2018-07-26T18:40:59.013Z,4.92
2018-07-26T18:43:27.115Z,5.08
2018-07-26T18:45:55.313Z,5.22
2018-07-26T18:48:23.580Z,5.50
2018-07-26T18:50:51.995Z,4.90
2018-07-26T18:53:20.306Z,5.03
2018-07-26T18:55:48.591Z,5.00
2018-07-26T18:58:16.835Z,4.75
2018-07-26T19:00:45.144Z,4.95
2018-07-26T19:03:13.424Z,5.28
2018-07-26T19:05:41.674Z,5.15
2018-07-26T19:08:10.104Z,5.10
2018-07-26T19:10:38.387Z,5.75
2018-07-26T19:13:06.677Z,5.35
2018-07-26T19:15:35.479Z,5.35
2018-07-26T19:18:03.924Z,5.35
2018-07-26T19:20:32.247Z,5.60
2018-07-26T19:23:00.516Z,4.95
2018-07-26T19:25:29.312Z,4.93
2018-07-26T19:27:58.125Z,5.60
2018-07-26T19:30:26.355Z,5.87
2018-07-26T19:32:54.635Z,5.72
2018-07-26T19:35:22.684Z,5.20
2018-07-26T19:37:50.909Z,4.97
2018-07-26T19:40:19.194Z,4.75
2018-07-26T19:42:47.496Z,5.37
2018-07-26T19:45:15.778Z,5.23
2018-07-26T19:47:44.088Z,5.47
2018-07-26T19:50:12.353Z,5.20
2018-07-26T19:52:40.624Z,5.63
2018-07-26T19:55:10.364Z,5.77
2018-07-26T19:57:38.675Z,5.67
2018-07-26T20:00:07.475Z,5.30
2018-07-26T20:02:36.458Z,5.27
2018-07-26T20:05:05.225Z,5.90
2018-07-26T20:07:33.459Z,5.57
2018-07-26T20:10:01.539Z,5.50
2018-07-26T20:12:29.797Z,5.57
2018-07-26T20:14:58.135Z,5.83
2018-07-26T20:17:26.381Z,5.73
2018-07-26T20:19:54.664Z,5.40
2018-07-26T20:22:22.921Z,5.50
2018-07-26T20:24:51.059Z,5.93
2018-07-26T20:27:19.291Z,5.70
2018-07-26T20:29:47.560Z,6.27
2018-07-26T20:32:15.800Z,6.00
2018-07-26T20:34:44.029Z,6.00
2018-07-26T20:37:12.370Z,5.73
2018-07-26T20:39:40.659Z,6.20
2018-07-26T20:42:08.898Z,5.77
2018-07-26T20:44:36.931Z,6.30
2018-07-26T20:47:05.329Z,6.10
2018-07-26T20:49:33.644Z,5.50
2018-07-26T20:52:01.868Z,5.43
2018-07-26T20:54:30.160Z,6.27
2018-07-26T20:56:58.416Z,5.80
2018-07-26T20:59:26.647Z,5.47
2018-07-26T21:01:54.876Z,5.60
2018-07-26T21:04:23.107Z,6.90
2018-07-26T21:06:51.332Z,6.47
2018-07-26T21:09:19.592Z,5.60
2018-07-26T21:11:47.861Z,7.50
2018-07-26T21:14:16.095Z,7.10
2018-07-26T21:16:44.327Z,5.67
2018-07-26T21:19:12.579Z,6.27
2018-07-26T21:21:40.822Z,5.63
2018-07-26T21:24:09.072Z,5.57
2018-07-26T21:26:37.335Z,5.93
2018-07-26T21:29:06.142Z,5.70
2018-07-26T21:31:34.407Z,6.00
2018-07-26T21:34:02.682Z,5.43
2018-07-26T21:36:30.686Z,5.47
2018-07-26T21:38:58.938Z,6.10
2018-07-26T21:41:27.171Z,5.73
2018-07-26T21:43:55.421Z,6.00
2018-07-26T21:46:23.647Z,5.93
2018-07-26T21:48:51.653Z,5.90
2018-07-26T21:51:19.923Z,5.40
2018-07-26T21:53:48.169Z,5.70
2018-07-26T21:56:16.192Z,5.70
2018-07-26T21:58:44.424Z,5.67
2018-07-26T22:01:12.670Z,5.67
2018-07-26T22:03:40.929Z,6.00
2018-07-26T22:06:09.165Z,6.13
2018-07-26T22:08:37.422Z,5.80
2018-07-26T22:11:05.664Z,5.93
2018-07-26T22:13:33.909Z,6.17
2018-07-26T22:16:02.221Z,6.10
2018-07-26T22:18:30.380Z,6.43
2018-07-26T22:20:58.672Z,5.93
2018-07-26T22:23:26.876Z,5.80
2018-07-26T22:25:54.895Z,5.40
2018-07-26T22:28:23.117Z,6.10
2018-07-26T22:30:51.376Z,5.57
2018-07-26T22:33:19.636Z,4.70
2018-07-26T22:35:47.887Z,5.60
2018-07-26T22:38:16.114Z,5.13
2018-07-26T22:40:44.376Z,5.80
2018-07-26T22:43:12.628Z,5.27
2018-07-26T22:45:40.884Z,5.30
2018-07-26T22:48:09.119Z,5.83
2018-07-26T22:50:37.134Z,4.90
2018-07-26T22:53:05.387Z,5.03
2018-07-26T22:55:33.659Z,5.57
2018-07-26T22:58:01.902Z,5.43
2018-07-26T23:00:30.293Z,4.90
2018-07-26T23:02:58.518Z,5.33
2018-07-26T23:05:26.782Z,5.73
2018-07-26T23:07:54.999Z,5.40
2018-07-26T23:10:23.255Z,5.47
2018-07-26T23:12:51.501Z,5.60
2018-07-26T23:15:19.753Z,5.37
2018-07-26T23:17:47.984Z,5.57
2018-07-26T23:20:16.288Z,5.10
2018-07-26T23:22:44.518Z,5.30
2018-07-26T23:25:12.781Z,5.20
2018-07-26T23:27:41.023Z,5.17
2018-07-26T23:30:12.547Z,5.30
2018-07-26T23:32:40.812Z,5.40
2018-07-26T23:35:09.303Z,5.23
2018-07-26T23:37:37.706Z,5.27
2018-07-26T23:40:07.272Z,5.23
2018-07-26T23:42:35.508Z,5.40
2018-07-26T23:45:03.952Z,5.30
2018-07-26T23:47:33.028Z,5.20
2018-07-26T23:50:01.306Z,5.57
2018-07-26T23:52:29.687Z,5.47
2018-07-26T23:54:57.766Z,5.00
2018-07-26T23:57:26.063Z,5.40
2018-07-26T23:59:54.320Z,5.07
